createdAt,value
2022-10-04T00:03:08.600Z,70.37
2022-10-04T00:06:21.238Z,70.36
2022-10-04T00:09:33.595Z,70.53
2022-10-04T00:12:46.644Z,70.78
2022-10-04T00:15:54.374Z,70.83
2022-10-04T00:19:27.483Z,70.86
2022-10-04T00:22:34.643Z,70.84
2022-10-04T00:25:40.812Z,70.70
2022-10-04T00:28:46.929Z,70.90
2022-10-04T00:32:27.208Z,71.25
2022-10-04T00:35:51.131Z,71.38
2022-10-04T00:39:16.307Z,71.31
2022-10-04T00:42:47.121Z,71.34
2022-10-04T00:45:58.910Z,71.23
2022-10-04T00:49:08.771Z,70.94
2022-10-04T00:52:17.839Z,70.76
2022-10-04T00:55:33.343Z,70.65
2022-10-04T00:58:48.865Z,70.58
2022-10-04T01:02:00.659Z,70.40
2022-10-04T01:05:12.030Z,70.42
2022-10-04T01:08:25.378Z,70.52
2022-10-04T01:11:37.221Z,70.52
2022-10-04T01:14:50.948Z,70.61
2022-10-04T01:18:15.901Z,70.63
2022-10-04T01:21:29.914Z,70.63
2022-10-04T01:24:39.051Z,70.53
2022-10-04T01:27:46.552Z,70.42
2022-10-04T01:30:53.131Z,70.37
2022-10-04T01:34:00.977Z,70.54
2022-10-04T01:37:07.346Z,70.63
2022-10-04T01:40:14.298Z,70.78
2022-10-04T01:43:28.061Z,70.88
2022-10-04T01:46:37.650Z,70.75
2022-10-04T01:49:46.846Z,70.79
2022-10-04T01:52:56.800Z,70.96
2022-10-04T01:56:10.685Z,71.22
2022-10-04T01:59:21.415Z,71.19
2022-10-04T02:02:35.732Z,71.16
2022-10-04T02:05:46.308Z,71.08
2022-10-04T02:08:57.759Z,70.93
2022-10-04T02:12:05.251Z,70.89
2022-10-04T02:15:13.128Z,70.97
2022-10-04T02:18:22.767Z,70.92
2022-10-04T02:21:29.443Z,70.91
2022-10-04T02:24:38.702Z,70.74
2022-10-04T02:27:44.969Z,70.71
2022-10-04T02:31:07.427Z,70.68
2022-10-04T02:34:14.579Z,70.72
2022-10-04T02:37:22.599Z,70.59
2022-10-04T02:40:33.915Z,70.52
2022-10-04T02:43:47.415Z,70.50
2022-10-04T02:46:57.346Z,70.52
2022-10-04T02:50:10.512Z,70.46
2022-10-04T02:53:25.239Z,70.42
2022-10-04T02:56:32.396Z,70.32
2022-10-04T02:59:42.378Z,70.05
2022-10-04T03:03:16.798Z,69.91
2022-10-04T03:06:26.353Z,69.72
2022-10-04T03:09:33.211Z,69.24
2022-10-04T03:12:39.919Z,68.82
2022-10-04T03:15:46.269Z,68.71
2022-10-04T03:18:54.319Z,68.49
2022-10-04T03:22:03.851Z,68.53
2022-10-04T03:25:18.733Z,68.33
2022-10-04T03:28:25.077Z,68.13
2022-10-04T03:31:33.035Z,68.18
2022-10-04T03:34:41.740Z,68.28
2022-10-04T03:37:48.119Z,68.28
2022-10-04T03:40:57.171Z,68.35
2022-10-04T03:44:05.205Z,68.67
2022-10-04T03:47:14.866Z,68.73
2022-10-04T03:50:25.128Z,68.72
2022-10-04T03:53:43.416Z,68.85
2022-10-04T03:56:49.978Z,69.09
2022-10-04T03:59:57.265Z,69.10
2022-10-04T04:03:07.382Z,69.21
2022-10-04T04:06:19.415Z,69.44
2022-10-04T04:09:33.259Z,69.49
2022-10-04T04:12:43.491Z,69.73
2022-10-04T04:15:50.474Z,69.73
2022-10-04T04:19:01.168Z,69.87
2022-10-04T04:22:07.664Z,69.65
2022-10-04T04:25:18.419Z,69.56
2022-10-04T04:28:28.946Z,69.38
2022-10-04T04:31:39.700Z,69.23
2022-10-04T04:34:53.999Z,69.07
2022-10-04T04:38:19.209Z,68.99
2022-10-04T04:41:27.174Z,69.07
2022-10-04T04:44:33.410Z,68.79
2022-10-04T04:47:41.959Z,68.70
2022-10-04T04:50:55.031Z,68.72
2022-10-04T04:54:02.905Z,68.45
2022-10-04T04:57:09.116Z,68.27
2022-10-04T05:00:19.124Z,68.13
2022-10-04T05:03:26.209Z,68.19
2022-10-04T05:06:34.422Z,68.04
2022-10-04T05:09:41.199Z,67.92
2022-10-04T05:12:47.373Z,67.72
2022-10-04T05:15:55.370Z,67.72
2022-10-04T05:19:04.540Z,68.01
2022-10-04T05:22:14.770Z,67.91
2022-10-04T05:25:28.114Z,67.93
2022-10-04T05:28:34.633Z,67.81
2022-10-04T05:31:49.538Z,67.80
2022-10-04T05:34:55.951Z,68.23
2022-10-04T05:38:13.282Z,68.38
2022-10-04T05:41:33.342Z,68.84
2022-10-04T05:44:51.896Z,68.84
2022-10-04T05:47:59.575Z,68.64
2022-10-04T05:51:14.058Z,68.56
2022-10-04T05:54:23.402Z,68.75
2022-10-04T05:57:39.915Z,68.74
2022-10-04T06:00:58.754Z,68.78
2022-10-04T06:04:35.551Z,69.09
2022-10-04T06:07:47.624Z,69.45
2022-10-04T06:11:06.807Z,69.31
2022-10-04T06:14:42.820Z,69.18
2022-10-04T06:18:13.331Z,69.32
2022-10-04T06:21:28.791Z,69.46
2022-10-04T06:24:40.590Z,69.47
2022-10-04T06:27:54.148Z,69.69
2022-10-04T06:31:39.550Z,69.70
2022-10-04T06:35:01.009Z,68.88
2022-10-04T06:38:31.342Z,68.85
2022-10-04T06:41:51.684Z,68.75
2022-10-04T06:45:19.508Z,68.74
2022-10-04T06:49:17.573Z,68.79
2022-10-04T06:52:56.880Z,68.65
2022-10-04T06:56:48.445Z,68.55
2022-10-04T07:00:09.406Z,67.75
2022-10-04T07:03:19.464Z,67.78
2022-10-04T07:06:30.723Z,67.53
2022-10-04T07:09:38.331Z,67.81
2022-10-04T07:12:53.018Z,67.72
2022-10-04T07:16:04.793Z,67.47
2022-10-04T07:19:29.168Z,66.76
2022-10-04T07:22:43.446Z,66.18
2022-10-04T07:25:53.870Z,66.09
2022-10-04T07:29:23.689Z,66.26
2022-10-04T07:32:33.678Z,66.70
2022-10-04T07:35:46.284Z,66.64
2022-10-04T07:38:58.548Z,66.35
2022-10-04T07:42:20.727Z,66.44
2022-10-04T07:45:32.835Z,66.27
2022-10-04T07:48:44.089Z,65.95
2022-10-04T07:52:13.607Z,65.44
2022-10-04T07:55:29.030Z,65.62
2022-10-04T07:58:52.992Z,65.35
2022-10-04T08:02:15.109Z,65.81
2022-10-04T08:05:27.437Z,65.35
2022-10-04T08:08:46.927Z,65.12
2022-10-04T08:12:02.944Z,65.14
2022-10-04T08:15:36.126Z,64.68
2022-10-04T08:18:53.659Z,64.79
2022-10-04T08:22:05.711Z,64.65
2022-10-04T08:25:23.384Z,64.88
2022-10-04T08:28:57.561Z,65.54
2022-10-04T08:32:10.587Z,65.82
2022-10-04T08:35:33.543Z,65.28
2022-10-04T08:38:49.435Z,64.37
2022-10-04T08:42:15.380Z,64.10
2022-10-04T08:46:04.245Z,64.23
2022-10-04T08:49:47.023Z,64.18
2022-10-04T08:53:20.847Z,64.54
2022-10-04T08:56:46.875Z,64.02
2022-10-04T09:00:13.835Z,64.16
2022-10-04T09:03:49.919Z,64.18
2022-10-04T09:07:11.255Z,63.88
2022-10-04T09:10:39.392Z,64.04
2022-10-04T09:13:56.937Z,63.65
2022-10-04T09:17:22.273Z,63.34
2022-10-04T09:20:47.191Z,63.72
2022-10-04T09:24:21.512Z,63.38
2022-10-04T09:28:00.569Z,63.35
2022-10-04T09:31:35.138Z,63.00
2022-10-04T09:35:04.350Z,63.07
2022-10-04T09:38:40.809Z,62.69
2022-10-04T09:42:07.492Z,62.86
2022-10-04T09:45:37.819Z,63.02
2022-10-04T09:48:53.950Z,62.29
2022-10-04T09:52:22.608Z,62.30
2022-10-04T09:55:55.580Z,62.88
2022-10-04T09:59:40.253Z,63.38
2022-10-04T10:03:19.203Z,62.27
2022-10-04T10:06:54.417Z,62.39
2022-10-04T10:10:26.699Z,62.25
2022-10-04T10:13:58.696Z,61.24
2022-10-04T10:17:16.262Z,62.06
2022-10-04T10:20:52.627Z,61.40
2022-10-04T10:24:35.118Z,61.52
2022-10-04T10:27:55.416Z,60.85
2022-10-04T10:31:23.518Z,60.20
2022-10-04T10:34:57.289Z,60.30
2022-10-04T10:38:25.792Z,61.65
2022-10-04T10:41:53.755Z,60.74
2022-10-04T10:45:33.892Z,60.30
2022-10-04T10:49:06.264Z,60.73
2022-10-04T10:52:44.707Z,60.11
2022-10-04T10:56:30.243Z,58.79
2022-10-04T11:00:21.521Z,59.03
2022-10-04T11:03:54.891Z,60.69
2022-10-04T11:07:31.215Z,61.85
2022-10-04T11:11:09.423Z,60.50
2022-10-04T11:14:33.323Z,60.36
2022-10-04T11:18:13.521Z,62.09
2022-10-04T11:21:43.281Z,62.63
2022-10-04T11:25:18.174Z,62.87
2022-10-04T11:28:32.919Z,62.43
2022-10-04T11:32:19.553Z,62.57
2022-10-04T11:35:47.441Z,62.14
2022-10-04T11:39:08.109Z,62.92
2022-10-04T11:42:27.823Z,62.98
2022-10-04T11:46:08.476Z,63.39
2022-10-04T11:49:49.174Z,64.49
2022-10-04T11:53:22.215Z,63.01
2022-10-04T11:56:42.843Z,63.78
2022-10-04T12:00:00.213Z,64.00
2022-10-04T12:03:31.468Z,62.03
2022-10-04T12:06:56.059Z,61.62
2022-10-04T12:10:24.750Z,60.97
2022-10-04T12:13:50.741Z,62.24
2022-10-04T12:17:25.583Z,60.99
2022-10-04T12:20:58.369Z,61.07
2022-10-04T12:24:32.771Z,61.47
2022-10-04T12:28:12.966Z,61.01
2022-10-04T12:31:24.308Z,59.89
2022-10-04T12:34:38.285Z,60.42
2022-10-04T12:37:56.392Z,58.65
2022-10-04T12:41:12.664Z,60.09
2022-10-04T12:44:32.568Z,60.42
2022-10-04T12:48:05.289Z,60.47
2022-10-04T12:51:29.017Z,60.62
2022-10-04T12:54:43.351Z,60.62
2022-10-04T12:57:57.897Z,60.86
2022-10-04T13:01:12.394Z,60.87
2022-10-04T13:04:29.363Z,59.77
2022-10-04T13:07:46.395Z,59.23
2022-10-04T13:11:18.770Z,59.55
2022-10-04T13:14:51.495Z,61.33
2022-10-04T13:18:06.700Z,61.85
2022-10-04T13:21:18.121Z,60.35
2022-10-04T13:24:53.468Z,60.57
2022-10-04T13:28:03.214Z,58.51
2022-10-04T13:31:15.866Z,59.09
2022-10-04T13:34:32.996Z,59.60
2022-10-04T13:37:51.560Z,60.04
2022-10-04T13:41:11.951Z,59.41
2022-10-04T13:44:33.538Z,59.42
2022-10-04T13:47:58.276Z,59.37
2022-10-04T13:52:15.150Z,58.49
2022-10-04T13:55:49.780Z,58.53
2022-10-04T13:59:05.093Z,60.33
2022-10-04T14:02:44.231Z,59.50
2022-10-04T14:06:19.963Z,59.11
2022-10-04T14:13:37.021Z,59.02
2022-10-04T14:17:15.573Z,59.61
2022-10-04T14:20:53.846Z,59.11
2022-10-04T14:24:39.066Z,59.01
2022-10-04T14:28:18.163Z,59.02
2022-10-04T14:31:40.288Z,58.98
2022-10-04T14:35:01.540Z,58.22
2022-10-04T14:38:32.080Z,58.77
2022-10-04T14:42:04.639Z,58.94
2022-10-04T14:45:29.698Z,58.72
2022-10-04T14:48:50.845Z,57.42
2022-10-04T14:52:14.557Z,58.15
2022-10-04T14:55:49.344Z,58.34
2022-10-04T14:59:09.453Z,58.68
2022-10-04T15:02:51.599Z,58.18
2022-10-04T15:06:11.841Z,58.14
2022-10-04T15:09:50.899Z,58.08
2022-10-04T15:13:11.605Z,58.49
2022-10-04T15:16:31.223Z,58.37
2022-10-04T15:19:54.687Z,58.73
2022-10-04T15:23:16.294Z,59.77
2022-10-04T15:26:56.418Z,60.10
2022-10-04T15:30:14.596Z,59.39
2022-10-04T15:33:40.683Z,60.07
2022-10-04T15:37:06.518Z,60.21
2022-10-04T15:40:34.098Z,60.23
2022-10-04T15:43:46.392Z,60.44
2022-10-04T15:46:57.269Z,60.63
2022-10-04T15:50:24.424Z,61.14
2022-10-04T15:53:51.422Z,61.47
2022-10-04T15:57:01.769Z,62.47
2022-10-04T16:00:15.335Z,62.60
2022-10-04T16:03:32.109Z,61.49
2022-10-04T16:06:51.171Z,60.32
2022-10-04T16:10:08.202Z,60.47
2022-10-04T16:13:41.266Z,60.65
2022-10-04T16:17:14.683Z,59.26
2022-10-04T16:20:40.828Z,59.78
2022-10-04T16:23:48.397Z,61.09
2022-10-04T16:27:24.360Z,63.34
2022-10-04T16:30:38.184Z,64.67
2022-10-04T16:33:55.289Z,64.25
2022-10-04T16:37:13.708Z,63.55
2022-10-04T16:40:34.072Z,63.23
2022-10-04T16:43:50.891Z,62.94
2022-10-04T16:47:02.144Z,62.53
2022-10-04T16:50:13.247Z,62.29
2022-10-04T16:53:32.835Z,62.10
2022-10-04T16:57:22.743Z,62.10
2022-10-04T17:00:38.690Z,61.75
2022-10-04T17:03:49.780Z,61.59
2022-10-04T17:06:59.311Z,61.93
2022-10-04T17:10:20.489Z,61.67
2022-10-04T17:13:33.960Z,61.77
2022-10-04T17:16:48.591Z,61.81
2022-10-04T17:20:03.535Z,61.82
2022-10-04T17:23:22.864Z,61.75
2022-10-04T17:26:42.208Z,62.05
2022-10-04T17:30:06.655Z,62.01
2022-10-04T17:33:31.279Z,62.15
2022-10-04T17:36:43.996Z,62.22
2022-10-04T17:39:54.632Z,62.09
2022-10-04T17:43:07.717Z,62.06
2022-10-04T17:46:24.394Z,62.02
2022-10-04T17:49:59.510Z,61.92
2022-10-04T17:53:31.055Z,61.95
2022-10-04T17:56:44.239Z,61.84
2022-10-04T17:59:55.275Z,61.73
2022-10-04T18:03:15.222Z,61.70
2022-10-04T18:06:30.982Z,61.60
2022-10-04T18:09:44.199Z,61.59
2022-10-04T18:12:57.932Z,61.51
2022-10-04T18:16:12.044Z,61.70
2022-10-04T18:19:44.041Z,62.03
2022-10-04T18:22:51.740Z,62.20
2022-10-04T18:26:01.438Z,62.30
2022-10-04T18:29:13.817Z,62.22
2022-10-04T18:32:38.045Z,62.26
2022-10-04T18:35:55.206Z,62.24
2022-10-04T18:39:20.912Z,62.46
2022-10-04T18:42:32.323Z,62.28
2022-10-04T18:45:38.682Z,62.24
2022-10-04T18:48:53.492Z,62.04
2022-10-04T18:52:17.241Z,62.01
2022-10-04T18:55:34.895Z,62.10
2022-10-04T18:59:12.153Z,62.42
2022-10-04T19:02:25.756Z,62.46
2022-10-04T19:05:39.737Z,62.60
2022-10-04T19:08:58.064Z,62.60
2022-10-04T19:12:12.997Z,62.66
2022-10-04T19:15:30.904Z,62.53
2022-10-04T19:18:57.854Z,62.33
2022-10-04T19:22:13.551Z,62.89
2022-10-04T19:25:35.088Z,62.78
2022-10-04T19:28:42.104Z,62.27
2022-10-04T19:31:54.482Z,62.17
2022-10-04T19:35:13.115Z,62.01
2022-10-04T19:38:33.876Z,62.12
2022-10-04T19:41:51.484Z,61.89
2022-10-04T19:45:16.270Z,62.34
2022-10-04T19:48:25.994Z,62.57
2022-10-04T19:51:39.630Z,62.41
2022-10-04T19:54:48.660Z,62.67
2022-10-04T19:58:01.752Z,62.41
2022-10-04T20:01:13.723Z,62.28
2022-10-04T20:04:36.338Z,62.38
2022-10-04T20:07:42.651Z,62.35
2022-10-04T20:10:47.579Z,62.40
2022-10-04T20:14:55.142Z,62.45
2022-10-04T20:18:01.658Z,62.22
2022-10-04T20:21:10.208Z,62.20
2022-10-04T20:24:40.671Z,62.20
2022-10-04T20:28:05.373Z,62.49
2022-10-04T20:31:12.311Z,62.73
2022-10-04T20:34:35.703Z,62.58
2022-10-04T20:38:31.111Z,62.60
2022-10-04T20:42:05.459Z,63.22
2022-10-04T20:45:28.666Z,63.35
2022-10-04T20:48:35.053Z,63.36
2022-10-04T20:51:47.720Z,63.02
2022-10-04T20:54:55.297Z,63.31
2022-10-04T20:58:04.455Z,63.17
2022-10-04T21:01:44.164Z,63.31
2022-10-04T21:04:53.538Z,63.85
2022-10-04T21:08:27.050Z,63.77
2022-10-04T21:11:47.794Z,63.76
2022-10-04T21:15:07.120Z,63.83
2022-10-04T21:18:13.338Z,63.93
2022-10-04T21:21:37.867Z,63.86
2022-10-04T21:24:54.989Z,64.16
2022-10-04T21:28:39.776Z,63.49
2022-10-04T21:31:46.003Z,62.91
2022-10-04T21:34:54.336Z,62.42
2022-10-04T21:38:01.019Z,62.42
2022-10-04T21:41:07.969Z,62.51
2022-10-04T21:44:14.069Z,62.74
2022-10-04T21:47:21.732Z,62.79
2022-10-04T21:50:27.813Z,62.75
2022-10-04T21:53:33.983Z,62.83
2022-10-04T21:56:40.147Z,62.71
2022-10-04T21:59:47.370Z,62.75
2022-10-04T22:02:53.598Z,62.85
2022-10-04T22:05:59.888Z,63.00
2022-10-04T22:09:04.906Z,62.90
2022-10-04T22:12:11.192Z,62.94
2022-10-04T22:15:15.419Z,62.76
2022-10-04T22:18:21.565Z,62.88
2022-10-04T22:21:27.866Z,63.34
2022-10-04T22:24:32.145Z,63.69
2022-10-04T22:27:38.376Z,64.08
2022-10-04T22:30:45.435Z,64.50
2022-10-04T22:33:52.657Z,64.63
2022-10-04T22:36:59.352Z,64.63
2022-10-04T22:40:06.228Z,64.48
2022-10-04T22:43:16.832Z,64.80
2022-10-04T22:46:23.492Z,65.08
2022-10-04T22:49:31.860Z,65.88
2022-10-04T22:52:38.380Z,65.44
2022-10-04T22:55:44.837Z,65.33
2022-10-04T22:58:50.970Z,65.29
2022-10-04T23:01:57.046Z,65.27
2022-10-04T23:05:13.638Z,65.21
2022-10-04T23:08:19.832Z,65.36
2022-10-04T23:11:25.996Z,64.92
2022-10-04T23:14:32.159Z,64.84
2022-10-04T23:17:40.740Z,65.18
2022-10-04T23:20:49.812Z,65.77
2022-10-04T23:23:56.352Z,66.10
2022-10-04T23:27:03.976Z,66.23
2022-10-04T23:30:16.907Z,66.29
2022-10-04T23:33:25.014Z,66.11
2022-10-04T23:36:31.679Z,66.03
2022-10-04T23:39:38.219Z,65.89
2022-10-04T23:42:44.658Z,65.40
2022-10-04T23:45:51.447Z,65.89
2022-10-04T23:48:57.671Z,66.27
2022-10-04T23:52:11.519Z,65.87
2022-10-04T23:55:20.477Z,66.23
2022-10-04T23:58:29.174Z,65.98
